createdAt,value
2022-11-17T00:05:47.738Z,9.8
2022-11-17T00:07:49.567Z,9.8
2022-11-17T00:11:53.306Z,9.7
2022-11-17T00:13:55.095Z,9.6
2022-11-17T00:15:56.807Z,9.5
2022-11-17T00:18:02.019Z,9.5
2022-11-17T00:28:11.259Z,9.4
2022-11-17T00:36:22.045Z,9.3
2022-11-17T00:42:27.332Z,9.2
2022-11-17T00:44:29.067Z,9.2
2022-11-17T00:51:40.423Z,9.2
2022-11-17T00:55:44.039Z,9.1
2022-11-17T00:59:51.104Z,9.1
2022-11-17T01:01:53.032Z,9.1
2022-11-17T01:03:54.796Z,9
2022-11-17T01:10:00.304Z,9.1
2022-11-17T01:12:02.168Z,9.2
2022-11-17T01:16:09.320Z,9.1
2022-11-17T01:18:11.051Z,9.2
2022-11-17T01:20:12.918Z,9.1
2022-11-17T01:24:16.626Z,9.2
2022-11-17T01:30:25.581Z,9.1
2022-11-17T01:32:27.319Z,9.1
2022-11-17T01:36:36.169Z,9.1
2022-11-17T01:40:34.322Z,9.2
2022-11-17T01:42:39.562Z,9
2022-11-17T01:44:41.321Z,9.1
2022-11-17T01:46:43.138Z,9
2022-11-17T01:47:45.682Z,9.1
2022-11-17T01:49:47.472Z,9.1
2022-11-17T01:51:49.375Z,9.1
2022-11-17T01:53:51.166Z,9.2
2022-11-17T01:55:56.569Z,9.1
2022-11-17T02:00:00.163Z,9.2
2022-11-17T02:02:02.032Z,9.2
2022-11-17T02:04:03.818Z,9.1
2022-11-17T02:06:05.667Z,9.2
2022-11-17T02:08:07.514Z,9.1
2022-11-17T02:10:12.898Z,9.2
2022-11-17T02:12:14.642Z,9.1
2022-11-17T02:14:16.393Z,9.2
2022-11-17T02:16:18.151Z,9.2
2022-11-17T02:20:21.629Z,9.2
2022-11-17T02:24:35.262Z,9.2
2022-11-17T02:28:32.388Z,9.3
2022-11-17T02:36:39.539Z,9.1
2022-11-17T02:38:44.754Z,9.1
2022-11-17T02:40:46.508Z,9.1
2022-11-17T02:42:48.276Z,9.3
2022-11-17T02:43:50.880Z,9.2
2022-11-17T02:45:52.629Z,9.2
2022-11-17T02:47:54.382Z,9.2
2022-11-17T02:49:56.111Z,9.2
2022-11-17T02:52:01.352Z,9.3
2022-11-17T02:56:04.874Z,9.3
2022-11-17T02:58:06.605Z,9.4
2022-11-17T03:00:08.373Z,9.4
2022-11-17T03:02:10.074Z,9.4
2022-11-17T03:04:11.838Z,9.4
2022-11-17T03:08:18.866Z,9.4
2022-11-17T03:10:20.635Z,9.4
2022-11-17T03:12:22.395Z,9.5
2022-11-17T03:14:24.144Z,9.4
2022-11-17T03:22:34.619Z,9.6
2022-11-17T03:24:36.357Z,9.6
2022-11-17T03:28:39.836Z,9.6
2022-11-17T03:32:43.429Z,9.6
2022-11-17T03:34:48.666Z,9.6
2022-11-17T03:36:50.492Z,9.5
2022-11-17T03:38:52.353Z,9.6
2022-11-17T03:41:16.580Z,9.6
2022-11-17T03:47:25.475Z,9.5
2022-11-17T03:49:27.219Z,9.7
2022-11-17T03:53:30.732Z,9.6
2022-11-17T03:57:34.233Z,9.6
2022-11-17T03:59:35.948Z,9.7
2022-11-17T04:05:45.066Z,9.7
2022-11-17T04:07:46.899Z,9.7
2022-11-17T04:09:48.734Z,9.6
2022-11-17T04:13:52.352Z,9.6
2022-11-17T04:15:57.461Z,9.6
2022-11-17T04:17:59.205Z,9.6
2022-11-17T04:26:06.265Z,9.7
2022-11-17T04:28:08.016Z,9.6
2022-11-17T04:32:15.080Z,9.7
2022-11-17T04:34:16.841Z,9.6
2022-11-17T04:35:19.458Z,9.7
2022-11-17T04:41:38.619Z,9.7
2022-11-17T04:43:33.414Z,9.6
2022-11-17T04:47:33.533Z,9.6
2022-11-17T04:49:35.388Z,9.8
2022-11-17T04:51:37.257Z,9.7
2022-11-17T04:53:38.962Z,9.7
2022-11-17T04:55:40.752Z,9.7
2022-11-17T04:57:46.005Z,9.6
2022-11-17T04:59:47.774Z,9.6
2022-11-17T05:01:49.653Z,9.7
2022-11-17T05:03:51.296Z,9.6
2022-11-17T05:07:54.833Z,9.7
2022-11-17T05:09:56.684Z,9.7
2022-11-17T05:12:01.899Z,9.5
2022-11-17T05:14:03.645Z,9.7
2022-11-17T05:16:05.498Z,9.6
2022-11-17T05:20:09.215Z,9.6
2022-11-17T05:24:12.770Z,9.4
2022-11-17T05:26:18.117Z,9.6
2022-11-17T05:28:19.760Z,9.6
2022-11-17T05:30:21.526Z,9.6
2022-11-17T05:31:24.228Z,9.6
2022-11-17T05:41:38.655Z,9.6
2022-11-17T05:43:40.491Z,9.5
2022-11-17T05:45:42.357Z,9.6
2022-11-17T05:47:44.190Z,9.6
2022-11-17T05:51:53.110Z,9.5
2022-11-17T05:53:58.262Z,9.7
2022-11-17T05:55:55.068Z,9.5
2022-11-17T05:59:27.543Z,9.7
2022-11-17T05:59:58.718Z,9.6
2022-11-17T06:06:04.152Z,9.5
2022-11-17T06:08:09.465Z,9.7
2022-11-17T06:14:14.847Z,9.5
2022-11-17T06:16:16.554Z,9.7
2022-11-17T06:18:18.324Z,9.6
2022-11-17T06:20:20.080Z,9.7
2022-11-17T06:22:25.357Z,9.6
2022-11-17T06:24:27.126Z,9.5
2022-11-17T06:27:31.506Z,9.6
2022-11-17T06:31:35.033Z,9.5
2022-11-17T06:33:37.169Z,9.6
2022-11-17T06:35:42.085Z,9.6
2022-11-17T06:39:45.591Z,9.6
2022-11-17T06:49:57.901Z,9.5
2022-11-17T06:51:59.666Z,9.6
2022-11-17T06:56:03.206Z,9.5
2022-11-17T07:08:17.816Z,9.6
2022-11-17T07:14:23.268Z,9.6
2022-11-17T07:16:25.105Z,9.7
2022-11-17T07:18:30.564Z,9.7
2022-11-17T07:20:32.399Z,9.7
2022-11-17T07:22:34.143Z,9.7
2022-11-17T07:28:42.283Z,9.8
2022-11-17T07:30:46.707Z,9.8
2022-11-17T07:34:50.264Z,9.8
2022-11-17T07:37:14.182Z,9.9
2022-11-17T07:39:21.275Z,9.8
2022-11-17T07:41:17.784Z,9.9
2022-11-17T07:43:23.192Z,9.9
2022-11-17T07:45:28.654Z,9.9
2022-11-17T07:47:26.709Z,9.9
2022-11-17T07:51:30.269Z,9.9
2022-11-17T07:53:32.023Z,9.9
2022-11-17T07:55:33.781Z,9.9
2022-11-17T07:57:39.011Z,9.9
2022-11-17T07:59:40.803Z,9.9
2022-11-17T08:01:42.532Z,9.9
2022-11-17T08:03:44.413Z,9.9
2022-11-17T08:05:46.045Z,10
2022-11-17T08:07:47.781Z,10
2022-11-17T08:11:54.828Z,10
2022-11-17T08:13:56.546Z,10
2022-11-17T08:15:58.356Z,9.9
2022-11-17T08:20:13.189Z,10
2022-11-17T08:22:06.532Z,10
2022-11-17T08:26:10.960Z,10
2022-11-17T08:28:12.807Z,10
2022-11-17T08:30:14.679Z,10
2022-11-17T08:31:17.385Z,10
2022-11-17T08:33:19.124Z,10
2022-11-17T08:35:20.973Z,10.1
2022-11-17T08:37:22.749Z,10.1
2022-11-17T08:43:31.519Z,10.1
2022-11-17T08:45:33.299Z,10
2022-11-17T08:47:35.098Z,10
2022-11-17T08:49:36.878Z,10
2022-11-17T08:51:38.641Z,10
2022-11-17T08:55:45.751Z,10
2022-11-17T08:57:47.436Z,10
2022-11-17T08:59:49.188Z,10
2022-11-17T09:01:50.979Z,9.9
2022-11-17T09:03:52.758Z,9.9
2022-11-17T09:05:54.492Z,9.9
2022-11-17T09:08:16.208Z,9.9
2022-11-17T09:12:03.403Z,10
2022-11-17T09:14:05.272Z,9.9
2022-11-17T09:16:07.089Z,10
2022-11-17T09:18:08.920Z,9.9
2022-11-17T09:20:10.696Z,10
2022-11-17T09:24:17.736Z,10
2022-11-17T09:26:19.469Z,9.9
2022-11-17T09:27:22.199Z,9.9
2022-11-17T09:29:23.948Z,9.9
2022-11-17T09:31:25.682Z,9.8
2022-11-17T09:33:27.456Z,9.9
2022-11-17T09:35:32.694Z,9.8
2022-11-17T09:37:34.469Z,9.8
2022-11-17T09:39:36.210Z,9.8
2022-11-17T09:45:41.491Z,9.8
2022-11-17T09:47:43.269Z,9.8
2022-11-17T09:51:50.346Z,9.8
2022-11-17T09:53:52.191Z,9.9
2022-11-17T09:55:54.050Z,10.1
2022-11-17T09:57:55.902Z,10.2
2022-11-17T09:59:57.755Z,10.4
2022-11-17T10:04:04.915Z,10.2
2022-11-17T10:06:06.753Z,10.2
2022-11-17T10:08:08.677Z,10.2
2022-11-17T10:10:10.465Z,10.1
2022-11-17T10:12:12.305Z,10.6
2022-11-17T10:14:14.167Z,10.4
2022-11-17T10:16:15.892Z,10.1
2022-11-17T10:20:22.856Z,10.1
2022-11-17T10:22:24.628Z,10.1
2022-11-17T10:23:27.279Z,9.9
2022-11-17T10:35:41.414Z,10.1
2022-11-17T10:37:43.172Z,10
2022-11-17T10:39:44.953Z,9.9
2022-11-17T10:41:46.705Z,9.9
2022-11-17T10:43:48.547Z,9.9
2022-11-17T10:45:53.973Z,9.7
2022-11-17T10:47:55.846Z,9.6
2022-11-17T10:49:57.692Z,9.7
2022-11-17T10:51:59.460Z,9.7
2022-11-17T10:56:03.191Z,9.6
2022-11-17T11:00:10.248Z,9.6
2022-11-17T11:02:11.995Z,9.7
2022-11-17T11:04:13.779Z,9.6
2022-11-17T11:08:17.363Z,9.7
2022-11-17T11:10:19.245Z,9.8
2022-11-17T11:12:21.049Z,9.8
2022-11-17T11:14:26.480Z,9.7
2022-11-17T11:16:28.348Z,9.8
2022-11-17T11:18:30.299Z,9.7
2022-11-17T11:20:34.587Z,9.7
2022-11-17T11:22:36.333Z,9.8
2022-11-17T11:24:38.128Z,9.8
2022-11-17T11:29:03.168Z,9.7
2022-11-17T11:31:04.934Z,9.8
2022-11-17T11:33:10.228Z,9.8
2022-11-17T11:37:13.734Z,9.9
2022-11-17T11:39:15.598Z,9.9
2022-11-17T11:47:26.277Z,10.1
2022-11-17T11:57:35.124Z,10.2
2022-11-17T12:01:42.094Z,10.4
2022-11-17T12:03:43.952Z,10.4
2022-11-17T12:05:45.614Z,10.4
2022-11-17T12:07:47.383Z,10.5
2022-11-17T12:09:49.133Z,10.5
2022-11-17T12:11:50.861Z,10.7
2022-11-17T12:13:54.273Z,10.6
2022-11-17T12:15:57.884Z,10.7
2022-11-17T12:17:59.681Z,10.5
2022-11-17T12:20:06.030Z,10.5
2022-11-17T12:21:04.076Z,10.4
2022-11-17T12:23:05.849Z,10.4
2022-11-17T12:25:07.603Z,10.5
2022-11-17T12:27:09.371Z,10.5
2022-11-17T12:29:14.628Z,10.5
2022-11-17T12:31:16.408Z,10.4
2022-11-17T12:33:18.195Z,10.2
2022-11-17T12:35:20.016Z,10.1
2022-11-17T12:37:22.672Z,10.1
2022-11-17T12:39:24.425Z,10.1
2022-11-17T12:41:26.189Z,10.1
2022-11-17T12:43:31.452Z,10.1
2022-11-17T12:45:37.544Z,10.2
2022-11-17T12:47:35.045Z,10.2
2022-11-17T12:53:40.256Z,10.2
2022-11-17T12:55:42.031Z,10.3
2022-11-17T12:57:47.255Z,10.3
2022-11-17T12:59:48.998Z,10.2
2022-11-17T13:01:50.835Z,10.1
2022-11-17T13:03:52.553Z,10.2
2022-11-17T13:06:19.829Z,10.1
2022-11-17T13:07:56.041Z,10.1
2022-11-17T13:09:57.845Z,10.2
2022-11-17T13:12:03.057Z,10.2
2022-11-17T13:14:04.808Z,10.2
2022-11-17T13:16:06.586Z,10.2
2022-11-17T13:21:12.761Z,10.2
2022-11-17T13:23:14.610Z,10.2
2022-11-17T13:27:21.549Z,10.2
2022-11-17T13:29:23.277Z,10.2
2022-11-17T13:31:25.072Z,10.2
2022-11-17T13:33:26.841Z,10.2
2022-11-17T13:35:28.621Z,10.2
2022-11-17T13:37:30.391Z,10.2
2022-11-17T13:39:35.598Z,10.1
2022-11-17T13:41:37.357Z,10
2022-11-17T13:43:39.115Z,10
2022-11-17T13:45:40.881Z,10
2022-11-17T13:47:42.727Z,10
2022-11-17T13:49:44.469Z,9.9
2022-11-17T13:51:46.238Z,10
2022-11-17T13:53:51.549Z,9.9
2022-11-17T13:55:53.293Z,9.9
2022-11-17T14:01:58.549Z,9.9
2022-11-17T14:06:02.025Z,9.9
2022-11-17T14:13:13.610Z,9.9
2022-11-17T14:17:17.063Z,9.8
2022-11-17T14:21:24.120Z,9.8
2022-11-17T14:23:25.978Z,9.8
2022-11-17T14:25:27.731Z,9.8
2022-11-17T14:29:31.317Z,9.8
2022-11-17T14:31:33.052Z,9.8
2022-11-17T14:33:34.827Z,9.8
2022-11-17T14:37:41.805Z,9.7
2022-11-17T14:39:43.542Z,9.7
2022-11-17T14:41:45.294Z,9.7
2022-11-17T14:43:47.152Z,9.7
2022-11-17T14:45:48.977Z,9.7
2022-11-17T14:47:50.830Z,9.7
2022-11-17T14:49:56.249Z,9.7
2022-11-17T14:53:59.933Z,9.7
2022-11-17T14:56:01.750Z,9.7
2022-11-17T14:58:03.506Z,9.7
2022-11-17T15:00:05.254Z,9.7
2022-11-17T15:02:07.040Z,9.7
2022-11-17T15:06:19.461Z,9.6
2022-11-17T15:08:16.043Z,9.6
2022-11-17T15:10:20.627Z,9.6
2022-11-17T15:12:22.421Z,9.5
2022-11-17T15:14:24.158Z,9.6
2022-11-17T15:16:28.592Z,9.6
2022-11-17T15:18:30.325Z,9.5
2022-11-17T15:20:32.082Z,9.5
2022-11-17T15:22:36.493Z,9.5
2022-11-17T15:24:40.723Z,9.5
2022-11-17T15:26:40.029Z,9.5
2022-11-17T15:28:46.192Z,9.5
2022-11-17T15:30:54.414Z,9.6
2022-11-17T15:32:48.016Z,9.5
2022-11-17T15:54:04.790Z,9.5
2022-11-17T15:56:06.510Z,9.4
2022-11-17T15:58:08.232Z,9.4
2022-11-17T16:00:12.624Z,9.5
2022-11-17T16:02:14.380Z,9.4
2022-11-17T16:10:24.339Z,9.4
2022-11-17T16:16:32.383Z,9.3
2022-11-17T16:21:02.975Z,9.4
2022-11-17T16:22:59.791Z,9.4
2022-11-17T16:25:05.342Z,9.5
2022-11-17T16:31:10.632Z,9.4
2022-11-17T16:33:12.393Z,9.4
2022-11-17T16:35:14.151Z,9.3
2022-11-17T16:41:22.922Z,9.4
2022-11-17T16:43:24.698Z,9.4
2022-11-17T16:45:26.470Z,9.3
2022-11-17T16:51:31.711Z,9.2
2022-11-17T16:53:36.978Z,9.3
2022-11-17T16:55:38.726Z,9.3
2022-11-17T16:57:40.489Z,9.2
2022-11-17T17:01:44.014Z,9.3
2022-11-17T17:03:45.766Z,9.4
2022-11-17T17:05:47.522Z,9.5
2022-11-17T17:09:54.531Z,9.3
2022-11-17T17:12:59.066Z,9.4
2022-11-17T17:15:00.906Z,9.5
2022-11-17T17:17:02.743Z,9.5
2022-11-17T17:19:04.601Z,9.4
2022-11-17T17:21:10.003Z,9.4
2022-11-17T17:23:11.826Z,9.3
2022-11-17T17:25:13.590Z,9.3
2022-11-17T17:27:15.302Z,9.3
2022-11-17T17:29:17.417Z,9.3
2022-11-17T17:31:21.775Z,9.2
2022-11-17T17:33:20.863Z,9.2
2022-11-17T17:37:28.113Z,9.1
2022-11-17T17:39:29.925Z,9.2
2022-11-17T17:41:31.751Z,9.3
2022-11-17T17:43:33.586Z,9.4
2022-11-17T17:45:35.444Z,9.5
2022-11-17T17:47:37.279Z,9.3
2022-11-17T17:49:42.677Z,9.2
2022-11-17T17:51:44.597Z,9.3
2022-11-17T17:53:46.340Z,9.3
2022-11-17T17:55:48.117Z,9.3
2022-11-17T17:57:49.820Z,9.2
2022-11-17T17:59:51.667Z,9.2
2022-11-17T18:01:53.518Z,9.3
2022-11-17T18:06:00.709Z,9.2
2022-11-17T18:08:02.453Z,9.3
2022-11-17T18:11:06.778Z,9.3
2022-11-17T18:13:10.782Z,9.3
2022-11-17T18:15:10.253Z,9.3
2022-11-17T18:17:15.633Z,9.2
2022-11-17T18:19:17.769Z,9.2
2022-11-17T18:21:19.279Z,9.1
2022-11-17T18:25:22.961Z,9
2022-11-17T18:27:24.785Z,9
2022-11-17T18:31:31.804Z,8.9
2022-11-17T18:33:33.546Z,8.8
2022-11-17T18:35:35.272Z,8.7
2022-11-17T18:37:37.002Z,8.7
2022-11-17T18:43:42.502Z,8.6
2022-11-17T18:45:47.959Z,8.5
2022-11-17T18:47:49.744Z,8.6
2022-11-17T18:49:51.581Z,8.6
2022-11-17T18:51:53.419Z,8.5
2022-11-17T18:53:55.250Z,8.4
2022-11-17T18:55:57.088Z,8.4
2022-11-17T19:00:03.986Z,8.4
2022-11-17T19:02:05.712Z,8.4
2022-11-17T19:07:12.120Z,8.5
2022-11-17T19:09:14.480Z,8.4
2022-11-17T19:15:22.880Z,8.3
2022-11-17T19:17:24.694Z,8.2
2022-11-17T19:21:28.336Z,8.1
2022-11-17T19:23:30.145Z,7.9
2022-11-17T19:25:31.963Z,7.9
2022-11-17T19:27:37.378Z,7.8
2022-11-17T19:29:39.184Z,7.8
2022-11-17T19:31:41.007Z,7.7
2022-11-17T19:33:42.803Z,7.8
2022-11-17T19:35:44.618Z,7.8
2022-11-17T19:37:46.428Z,7.9
2022-11-17T19:39:48.249Z,8.1
2022-11-17T19:41:53.663Z,8.1
2022-11-17T19:43:55.468Z,8.1
2022-11-17T19:45:57.251Z,8.1
2022-11-17T19:47:59.054Z,8
2022-11-17T19:50:00.875Z,7.9
2022-11-17T19:52:02.693Z,7.9
2022-11-17T19:54:04.497Z,8.1
2022-11-17T19:58:11.679Z,8
2022-11-17T20:00:13.480Z,8
2022-11-17T20:02:17.966Z,8
2022-11-17T20:04:19.775Z,7.9
2022-11-17T20:06:21.569Z,7.8
2022-11-17T20:10:27.850Z,7.9
2022-11-17T20:12:29.674Z,7.8
2022-11-17T20:14:34.111Z,7.7
2022-11-17T20:16:37.766Z,7.8
2022-11-17T20:18:37.717Z,7.8
2022-11-17T20:23:42.051Z,7.7
2022-11-17T20:25:43.845Z,7.6
2022-11-17T20:27:45.650Z,7.7
2022-11-17T20:33:53.726Z,7.6
2022-11-17T20:52:29.456Z,7.5
2022-11-17T20:54:31.268Z,7.5
2022-11-17T20:56:33.005Z,7.4
2022-11-17T21:00:39.317Z,7.3
2022-11-17T21:02:41.040Z,7.3
2022-11-17T21:04:45.548Z,7.3
2022-11-17T21:06:47.334Z,7.2
2022-11-17T21:08:49.064Z,7.2
2022-11-17T21:10:53.527Z,7.3
2022-11-17T21:12:55.292Z,7.3
2022-11-17T21:14:57.062Z,7.3
2022-11-17T21:17:01.595Z,7.3
2022-11-17T21:19:03.297Z,7.4
2022-11-17T21:21:06.019Z,7.4
2022-11-17T21:30:04.883Z,7.5
2022-11-17T21:32:06.659Z,7.4
2022-11-17T21:34:08.432Z,7.4
2022-11-17T21:36:12.894Z,7.4
2022-11-17T21:40:16.441Z,7.4
2022-11-17T21:42:20.897Z,7.5
2022-11-17T21:44:22.671Z,7.3
2022-11-17T21:46:24.460Z,7.3
2022-11-17T21:48:28.922Z,7.3
2022-11-17T21:50:30.702Z,7.2
2022-11-17T21:52:32.497Z,7.1
2022-11-17T21:54:36.948Z,7.1
2022-11-17T21:56:38.736Z,7.3
2022-11-17T21:58:40.540Z,7.3
2022-11-17T22:05:46.305Z,7.2
2022-11-17T22:13:56.014Z,7.1
2022-11-17T22:18:02.263Z,6.9
2022-11-17T22:26:12.116Z,6.8
2022-11-17T22:34:24.579Z,6.7
2022-11-17T22:38:28.175Z,6.7
2022-11-17T22:43:41.542Z,6.7
2022-11-17T22:47:48.838Z,6.5
2022-11-17T22:59:24.778Z,6.4
2022-11-17T23:01:26.533Z,6.4
2022-11-17T23:03:28.349Z,6.3
2022-11-17T23:05:32.753Z,6.4
2022-11-17T23:09:36.289Z,6.4
2022-11-17T23:11:40.733Z,6.4
2022-11-17T23:13:42.487Z,6.6
2022-11-17T23:15:44.333Z,6.5
2022-11-17T23:17:48.677Z,6.4
2022-11-17T23:19:50.478Z,6.6
2022-11-17T23:21:52.240Z,6.5
2022-11-17T23:23:56.682Z,6.4
2022-11-17T23:25:58.459Z,6.5
2022-11-17T23:28:00.261Z,6.4
2022-11-17T23:30:04.693Z,6.6
2022-11-17T23:32:06.456Z,6.4
2022-11-17T23:34:08.232Z,6.3
2022-11-17T23:36:12.673Z,6.4
2022-11-17T23:38:14.447Z,6.5
2022-11-17T23:40:16.210Z,6.3
2022-11-17T23:42:21.785Z,6.2
2022-11-17T23:44:22.449Z,6.3
2022-11-17T23:46:24.418Z,6.5
2022-11-17T23:48:28.670Z,6.5
2022-11-17T23:50:30.450Z,6.3
2022-11-17T23:52:32.200Z,6.1
2022-11-17T23:54:36.638Z,6.2
2022-11-17T23:58:40.194Z,6.1
